createdAt,value
2019-03-28T00:02:23.916Z,73.21
2019-03-28T00:04:55.427Z,72.99
2019-03-28T00:07:26.941Z,73.01
2019-03-28T00:09:58.461Z,73.01
2019-03-28T00:12:30.057Z,73.04
2019-03-28T00:15:01.547Z,73.24
2019-03-28T00:17:33.104Z,73.09
2019-03-28T00:20:05.935Z,73.14
2019-03-28T00:22:42.341Z,73.09
2019-03-28T00:25:18.523Z,72.82
2019-03-28T00:27:50.053Z,72.88
2019-03-28T00:30:22.213Z,73.16
2019-03-28T00:32:53.816Z,72.95
2019-03-28T00:35:26.206Z,72.96
2019-03-28T00:37:57.881Z,73.23
2019-03-28T00:40:30.218Z,73.38
2019-03-28T00:43:01.874Z,73.86
2019-03-28T00:45:33.470Z,74.01
2019-03-28T00:48:04.973Z,74.10
2019-03-28T00:50:36.487Z,74.08
2019-03-28T00:53:08.086Z,73.91
2019-03-28T00:55:39.597Z,73.92
2019-03-28T00:58:11.124Z,73.66
2019-03-28T01:00:42.629Z,73.39
2019-03-28T01:03:14.125Z,73.34
2019-03-28T01:05:45.666Z,73.76
2019-03-28T01:08:17.219Z,73.54
2019-03-28T01:10:48.731Z,73.35
2019-03-28T01:13:20.245Z,73.16
2019-03-28T01:15:51.758Z,72.96
2019-03-28T01:18:23.342Z,73.05
2019-03-28T01:20:54.859Z,73.50
2019-03-28T01:23:26.496Z,73.10
2019-03-28T01:25:58.004Z,73.03
2019-03-28T01:28:29.515Z,72.97
2019-03-28T01:31:01.088Z,72.87
2019-03-28T01:33:32.589Z,73.42
2019-03-28T01:36:05.174Z,73.07
2019-03-28T01:38:36.746Z,73.13
2019-03-28T01:41:08.268Z,72.81
2019-03-28T01:43:39.760Z,72.62
2019-03-28T01:46:12.330Z,72.47
2019-03-28T01:48:43.893Z,72.76
2019-03-28T01:51:15.415Z,72.70
2019-03-28T01:53:48.581Z,72.49
2019-03-28T01:56:20.152Z,72.30
2019-03-28T01:58:51.719Z,72.14
2019-03-28T02:01:23.249Z,72.13
2019-03-28T02:03:54.735Z,72.26
2019-03-28T02:06:26.227Z,72.35
2019-03-28T02:08:57.747Z,72.27
2019-03-28T02:11:29.269Z,72.11
2019-03-28T02:14:00.781Z,71.92
2019-03-28T02:16:32.342Z,71.87
2019-03-28T02:19:03.855Z,71.92
2019-03-28T02:21:36.115Z,71.92
2019-03-28T02:24:07.681Z,71.90
2019-03-28T02:26:39.267Z,72.62
2019-03-28T02:29:10.843Z,72.44
2019-03-28T02:31:43.075Z,72.27
2019-03-28T02:34:14.832Z,72.39
2019-03-28T02:36:46.416Z,72.63
2019-03-28T02:39:17.905Z,73.14
2019-03-28T02:41:49.479Z,72.75
2019-03-28T02:44:21.935Z,72.55
2019-03-28T02:46:53.451Z,72.72
2019-03-28T02:49:25.036Z,72.33
2019-03-28T02:51:56.557Z,72.48
2019-03-28T02:54:28.165Z,72.98
2019-03-28T02:56:59.735Z,72.75
2019-03-28T02:59:31.238Z,73.47
2019-03-28T03:02:02.823Z,74.08
2019-03-28T03:04:34.421Z,74.11
2019-03-28T03:07:05.929Z,73.67
2019-03-28T03:09:37.464Z,73.71
2019-03-28T03:12:08.931Z,73.26
2019-03-28T03:14:40.661Z,72.78
2019-03-28T03:17:12.226Z,72.58
2019-03-28T03:19:45.369Z,72.63
2019-03-28T03:22:16.874Z,72.39
2019-03-28T03:24:48.464Z,72.39
2019-03-28T03:27:20.107Z,72.49
2019-03-28T03:29:51.621Z,72.40
2019-03-28T03:32:23.132Z,72.24
2019-03-28T03:34:54.632Z,72.21
2019-03-28T03:37:26.159Z,72.34
2019-03-28T03:39:57.741Z,72.21
2019-03-28T03:42:29.258Z,72.22
2019-03-28T03:45:00.846Z,72.17
2019-03-28T03:47:32.419Z,72.35
2019-03-28T03:50:05.505Z,72.34
2019-03-28T03:52:37.018Z,72.31
2019-03-28T03:55:09.606Z,72.23
2019-03-28T03:57:41.105Z,72.63
2019-03-28T04:00:15.837Z,72.65
2019-03-28T04:02:47.354Z,72.57
2019-03-28T04:05:18.869Z,72.84
2019-03-28T04:07:50.380Z,72.81
2019-03-28T04:10:21.919Z,72.91
2019-03-28T04:12:53.432Z,72.71
2019-03-28T04:15:25.018Z,72.64
2019-03-28T04:17:56.663Z,72.87
2019-03-28T04:20:28.168Z,72.94
2019-03-28T04:22:59.828Z,72.89
2019-03-28T04:25:31.331Z,73.13
2019-03-28T04:28:02.841Z,73.31
2019-03-28T04:30:34.348Z,73.01
2019-03-28T04:33:05.857Z,73.04
2019-03-28T04:35:37.358Z,73.33
2019-03-28T04:38:08.863Z,73.37
2019-03-28T04:40:40.363Z,73.55
2019-03-28T04:43:12.019Z,74.23
2019-03-28T04:45:43.592Z,74.22
2019-03-28T04:48:15.104Z,74.33
2019-03-28T04:50:46.608Z,74.16
2019-03-28T04:53:20.906Z,73.98
2019-03-28T04:55:52.440Z,74.46
2019-03-28T04:58:23.956Z,74.30
2019-03-28T05:00:55.501Z,74.01
2019-03-28T05:03:27.010Z,74.07
2019-03-28T05:05:58.649Z,74.36
2019-03-28T05:08:30.173Z,74.33
2019-03-28T05:11:01.677Z,74.31
2019-03-28T05:13:33.188Z,74.13
2019-03-28T05:16:04.706Z,73.85
2019-03-28T05:18:36.209Z,73.80
2019-03-28T05:21:07.696Z,73.97
2019-03-28T05:23:39.215Z,74.18
2019-03-28T05:26:10.706Z,73.75
2019-03-28T05:28:42.234Z,73.56
2019-03-28T05:31:13.748Z,73.13
2019-03-28T05:33:45.233Z,72.77
2019-03-28T05:36:16.820Z,72.39
2019-03-28T05:38:48.323Z,72.48
2019-03-28T05:41:19.824Z,72.30
2019-03-28T05:43:51.394Z,72.34
2019-03-28T05:46:23.971Z,72.51
2019-03-28T05:48:55.455Z,72.93
2019-03-28T05:51:26.942Z,72.67
2019-03-28T05:53:58.595Z,72.71
2019-03-28T05:56:30.133Z,72.17
2019-03-28T05:59:10.883Z,71.93
2019-03-28T06:01:34.826Z,72.48
2019-03-28T06:04:06.320Z,72.57
2019-03-28T06:06:38.079Z,72.47
2019-03-28T06:09:09.599Z,72.37
2019-03-28T06:11:41.104Z,72.01
2019-03-28T06:14:12.620Z,72.03
2019-03-28T06:16:44.124Z,71.81
2019-03-28T06:19:15.866Z,71.76
2019-03-28T06:21:47.545Z,71.81
2019-03-28T06:24:19.217Z,71.58
2019-03-28T06:26:50.717Z,71.76
2019-03-28T06:29:24.481Z,71.54
2019-03-28T06:31:56.533Z,71.25
2019-03-28T06:34:30.006Z,71.23
2019-03-28T06:37:01.655Z,70.95
2019-03-28T06:39:36.282Z,70.86
2019-03-28T06:42:06.503Z,71.17
2019-03-28T06:44:38.039Z,71.48
2019-03-28T06:47:09.559Z,71.39
2019-03-28T06:49:41.152Z,70.59
2019-03-28T06:52:12.743Z,70.59
2019-03-28T06:54:44.278Z,70.87
2019-03-28T06:57:18.675Z,69.67
2019-03-28T06:59:49.069Z,70.11
2019-03-28T07:02:22.030Z,70.24
2019-03-28T07:04:53.693Z,70.03
2019-03-28T07:07:25.189Z,69.86
2019-03-28T07:09:56.712Z,69.79
2019-03-28T07:12:28.279Z,69.42
2019-03-28T07:14:59.867Z,69.21
2019-03-28T07:17:31.443Z,68.74
2019-03-28T07:20:02.960Z,69.04
2019-03-28T07:22:34.475Z,68.24
2019-03-28T07:25:07.333Z,67.33
2019-03-28T07:27:38.854Z,66.02
2019-03-28T07:30:12.532Z,66.18
2019-03-28T07:32:44.105Z,65.24
2019-03-28T07:35:15.618Z,64.64
2019-03-28T07:37:47.129Z,63.91
2019-03-28T07:40:18.644Z,64.00
2019-03-28T07:42:50.172Z,63.31
2019-03-28T07:45:21.688Z,63.93
2019-03-28T07:47:53.201Z,63.47
2019-03-28T07:50:24.722Z,63.33
2019-03-28T07:52:56.233Z,63.47
2019-03-28T07:55:27.838Z,63.20
2019-03-28T07:57:59.365Z,62.14
2019-03-28T08:00:30.884Z,62.68
2019-03-28T08:03:02.480Z,62.91
2019-03-28T08:05:34.141Z,61.65
2019-03-28T08:08:05.717Z,61.34
2019-03-28T08:10:37.338Z,60.91
2019-03-28T08:13:08.951Z,60.92
2019-03-28T08:15:40.533Z,59.19
2019-03-28T08:18:12.086Z,58.67
2019-03-28T08:20:43.579Z,58.17
2019-03-28T08:23:15.186Z,58.67
2019-03-28T08:25:46.697Z,58.59
2019-03-28T08:28:18.216Z,58.47
2019-03-28T08:30:49.785Z,57.40
2019-03-28T08:33:21.298Z,58.81
2019-03-28T08:35:53.052Z,56.74
2019-03-28T08:38:24.615Z,58.21
2019-03-28T08:40:56.269Z,56.01
2019-03-28T08:43:27.921Z,56.57
2019-03-28T08:45:59.460Z,56.75
2019-03-28T08:48:30.995Z,55.82
2019-03-28T08:51:02.506Z,56.89
2019-03-28T08:53:34.027Z,56.03
2019-03-28T08:56:05.516Z,57.10
2019-03-28T08:58:38.246Z,56.81
2019-03-28T09:01:10.036Z,56.90
2019-03-28T09:03:41.556Z,55.70
2019-03-28T09:06:13.072Z,53.60
2019-03-28T09:08:44.573Z,54.48
2019-03-28T09:11:16.094Z,54.51
2019-03-28T09:13:47.664Z,54.61
2019-03-28T09:16:19.177Z,54.74
2019-03-28T09:18:50.700Z,55.05
2019-03-28T09:21:22.212Z,54.96
2019-03-28T09:23:53.873Z,54.57
2019-03-28T09:26:25.457Z,53.58
2019-03-28T09:28:56.983Z,51.99
2019-03-28T09:31:28.514Z,50.17
2019-03-28T09:34:00.035Z,51.00
2019-03-28T09:36:31.557Z,50.05
2019-03-28T09:39:04.819Z,50.29
2019-03-28T09:41:36.417Z,51.29
2019-03-28T09:44:07.907Z,51.21
2019-03-28T09:46:39.422Z,51.65
2019-03-28T09:49:10.933Z,51.10
2019-03-28T09:51:42.449Z,51.70
2019-03-28T09:54:13.973Z,52.09
2019-03-28T09:56:45.631Z,50.22
2019-03-28T09:59:17.225Z,49.84
2019-03-28T10:01:48.767Z,50.50
2019-03-28T10:04:20.353Z,47.87
2019-03-28T10:06:51.872Z,49.03
2019-03-28T10:09:23.442Z,50.00
2019-03-28T10:11:54.966Z,50.27
2019-03-28T10:14:26.500Z,49.75
2019-03-28T10:16:58.013Z,49.60
2019-03-28T10:19:29.503Z,48.83
2019-03-28T10:22:00.997Z,49.01
2019-03-28T10:24:32.508Z,47.91
2019-03-28T10:27:04.056Z,47.00
2019-03-28T10:29:35.604Z,45.90
2019-03-28T10:32:07.117Z,46.33
2019-03-28T10:34:38.646Z,46.35
2019-03-28T10:37:10.116Z,45.89
2019-03-28T10:39:41.694Z,43.81
2019-03-28T10:42:13.182Z,43.24
2019-03-28T10:44:44.771Z,44.11
2019-03-28T10:47:16.352Z,44.92
2019-03-28T10:49:47.962Z,44.93
2019-03-28T10:52:19.499Z,45.18
2019-03-28T10:54:51.005Z,44.42
2019-03-28T10:57:29.771Z,44.26
2019-03-28T10:59:55.799Z,44.67
2019-03-28T11:02:28.929Z,43.79
2019-03-28T11:05:00.670Z,43.75
2019-03-28T11:07:32.183Z,44.14
2019-03-28T11:10:05.100Z,43.69
2019-03-28T11:12:36.665Z,43.72
2019-03-28T11:15:08.365Z,43.72
2019-03-28T11:17:39.854Z,43.10
2019-03-28T11:20:11.837Z,43.17
2019-03-28T11:22:43.415Z,42.72
2019-03-28T11:25:14.927Z,41.87
2019-03-28T11:27:46.447Z,42.10
2019-03-28T11:30:18.558Z,41.85
2019-03-28T11:32:50.240Z,41.81
2019-03-28T11:35:21.769Z,41.61
2019-03-28T11:37:53.360Z,41.92
2019-03-28T11:40:24.870Z,39.67
2019-03-28T11:42:56.446Z,39.81
2019-03-28T11:45:28.053Z,39.79
2019-03-28T11:47:59.568Z,39.54
2019-03-28T11:50:31.079Z,38.71
2019-03-28T11:53:02.565Z,39.02
2019-03-28T11:55:34.082Z,38.79
2019-03-28T11:58:05.620Z,37.55
2019-03-28T12:00:37.341Z,38.05
2019-03-28T12:03:08.866Z,37.52
2019-03-28T12:05:40.384Z,37.07
2019-03-28T12:08:11.910Z,37.37
2019-03-28T12:10:43.425Z,37.37
2019-03-28T12:13:14.951Z,40.05
2019-03-28T12:15:46.474Z,42.42
2019-03-28T12:18:18.050Z,42.73
2019-03-28T12:20:49.650Z,42.91
2019-03-28T12:23:21.166Z,43.93
2019-03-28T12:25:52.785Z,44.00
2019-03-28T12:28:24.304Z,44.37
2019-03-28T12:30:55.809Z,44.59
2019-03-28T12:33:27.331Z,44.37
2019-03-28T12:35:58.910Z,44.30
2019-03-28T12:38:30.399Z,43.73
2019-03-28T12:41:01.968Z,43.08
2019-03-28T12:43:33.552Z,43.50
2019-03-28T12:46:05.124Z,43.29
2019-03-28T12:48:36.713Z,42.82
2019-03-28T12:51:08.229Z,42.56
2019-03-28T12:53:39.806Z,42.69
2019-03-28T12:56:12.351Z,42.60
2019-03-28T12:58:44.009Z,42.87
2019-03-28T13:01:16.476Z,43.29
2019-03-28T13:03:47.986Z,42.36
2019-03-28T13:06:19.578Z,42.26
2019-03-28T13:08:51.103Z,42.05
2019-03-28T13:11:22.608Z,42.02
2019-03-28T13:13:54.117Z,42.10
2019-03-28T13:16:25.619Z,41.19
2019-03-28T13:18:57.172Z,41.65
2019-03-28T13:21:28.741Z,41.27
2019-03-28T13:24:00.231Z,41.16
2019-03-28T13:26:31.747Z,41.39
2019-03-28T13:29:03.353Z,40.78
2019-03-28T13:31:34.960Z,41.37
2019-03-28T13:34:06.529Z,40.86
2019-03-28T13:36:39.213Z,40.94
2019-03-28T13:39:10.734Z,40.33
2019-03-28T13:41:44.349Z,40.72
2019-03-28T13:44:15.520Z,40.91
2019-03-28T13:46:47.054Z,40.01
2019-03-28T13:49:18.569Z,40.06
2019-03-28T13:51:50.160Z,40.85
2019-03-28T13:54:23.336Z,40.38
2019-03-28T13:56:55.079Z,39.98
2019-03-28T13:59:26.597Z,39.82
2019-03-28T14:01:58.111Z,39.47
2019-03-28T14:04:30.695Z,39.45
2019-03-28T14:07:02.203Z,38.93
2019-03-28T14:09:33.706Z,39.05
2019-03-28T14:12:05.233Z,39.17
2019-03-28T14:14:39.805Z,39.84
2019-03-28T14:17:09.925Z,40.69
2019-03-28T14:19:41.459Z,41.16
2019-03-28T14:22:12.970Z,41.28
2019-03-28T14:24:44.479Z,41.73
2019-03-28T14:27:16.003Z,41.41
2019-03-28T14:29:47.526Z,41.10
2019-03-28T14:32:19.100Z,41.48
2019-03-28T14:34:50.609Z,41.34
2019-03-28T14:37:22.124Z,41.45
2019-03-28T14:39:53.632Z,41.33
2019-03-28T14:42:25.153Z,41.47
2019-03-28T14:44:56.666Z,41.12
2019-03-28T14:47:28.315Z,41.45
2019-03-28T14:50:00.012Z,41.75
2019-03-28T14:52:31.568Z,42.54
2019-03-28T14:55:03.102Z,43.33
2019-03-28T14:57:34.687Z,44.09
2019-03-28T15:00:13.532Z,44.50
2019-03-28T15:02:45.156Z,45.29
2019-03-28T15:05:16.679Z,45.85
2019-03-28T15:07:48.192Z,46.01
2019-03-28T15:10:19.716Z,46.62
2019-03-28T15:12:51.205Z,47.08
2019-03-28T15:15:22.718Z,46.71
2019-03-28T15:17:54.323Z,47.07
2019-03-28T15:20:27.503Z,46.76
2019-03-28T15:22:59.175Z,47.35
2019-03-28T15:25:32.514Z,46.93
2019-03-28T15:28:05.649Z,46.88
2019-03-28T15:30:44.740Z,46.93
2019-03-28T15:33:22.040Z,47.51
2019-03-28T15:35:58.061Z,46.65
2019-03-28T15:38:34.612Z,46.81
2019-03-28T15:41:06.197Z,46.39
2019-03-28T15:43:37.758Z,46.35
2019-03-28T15:46:09.331Z,46.53
2019-03-28T15:48:40.828Z,46.27
2019-03-28T15:51:12.355Z,46.64
2019-03-28T15:53:43.870Z,45.72
2019-03-28T15:56:15.367Z,46.00
2019-03-28T15:58:46.948Z,45.77
2019-03-28T16:01:18.480Z,44.77
2019-03-28T16:03:53.357Z,44.52
2019-03-28T16:06:23.279Z,44.26
2019-03-28T16:08:54.921Z,44.05
2019-03-28T16:11:26.654Z,44.54
2019-03-28T16:13:58.254Z,44.67
2019-03-28T16:16:29.774Z,44.70
2019-03-28T16:19:01.847Z,45.72
2019-03-28T16:21:33.617Z,46.22
2019-03-28T16:24:05.221Z,46.48
2019-03-28T16:26:36.803Z,46.65
2019-03-28T16:29:09.972Z,46.83
2019-03-28T16:31:43.140Z,47.20
2019-03-28T16:34:14.680Z,47.21
2019-03-28T16:36:46.223Z,47.42
2019-03-28T16:39:17.749Z,47.51
2019-03-28T16:41:49.812Z,47.49
2019-03-28T16:44:21.433Z,47.58
2019-03-28T16:46:52.999Z,47.52
2019-03-28T16:49:24.533Z,47.40
2019-03-28T16:51:56.049Z,47.39
2019-03-28T16:54:27.959Z,47.40
2019-03-28T16:56:59.672Z,47.44
2019-03-28T16:59:31.252Z,47.62
2019-03-28T17:02:02.772Z,47.70
2019-03-28T17:04:34.355Z,47.32
2019-03-28T17:07:07.033Z,45.05
2019-03-28T17:09:39.257Z,44.11
2019-03-28T17:12:10.967Z,44.79
2019-03-28T17:14:43.444Z,45.39
2019-03-28T17:17:15.029Z,45.91
2019-03-28T17:19:46.526Z,46.78
2019-03-28T17:22:18.048Z,47.61
2019-03-28T17:24:49.548Z,47.75
2019-03-28T17:27:21.049Z,47.88
2019-03-28T17:29:52.840Z,48.04
2019-03-28T17:32:25.512Z,48.22
2019-03-28T17:34:57.025Z,48.23
2019-03-28T17:37:28.672Z,48.15
2019-03-28T17:40:00.395Z,47.96
2019-03-28T17:42:32.108Z,47.86
2019-03-28T17:45:07.153Z,47.75
2019-03-28T17:47:38.742Z,47.74
2019-03-28T17:50:10.363Z,47.83
2019-03-28T17:52:42.055Z,47.82
2019-03-28T17:55:13.568Z,47.53
2019-03-28T17:57:45.536Z,47.37
2019-03-28T18:00:17.567Z,47.37
2019-03-28T18:02:49.236Z,47.31
2019-03-28T18:05:20.748Z,47.16
2019-03-28T18:07:52.368Z,47.21
2019-03-28T18:10:24.973Z,47.46
2019-03-28T18:12:57.567Z,47.60
2019-03-28T18:15:29.128Z,47.44
2019-03-28T18:18:00.703Z,47.27
2019-03-28T18:20:33.533Z,47.46
2019-03-28T18:23:05.124Z,47.42
2019-03-28T18:25:36.646Z,47.47
2019-03-28T18:28:08.232Z,47.28
2019-03-28T18:30:39.937Z,47.08
2019-03-28T18:33:11.517Z,47.22
2019-03-28T18:35:43.193Z,47.07
2019-03-28T18:38:14.700Z,47.22
2019-03-28T18:40:46.826Z,47.14
2019-03-28T18:43:18.648Z,47.01
2019-03-28T18:45:50.267Z,47.06
2019-03-28T18:48:29.134Z,47.02
2019-03-28T18:50:54.957Z,47.18
2019-03-28T18:53:26.725Z,47.38
2019-03-28T18:55:58.306Z,47.48
2019-03-28T18:58:29.864Z,48.02
2019-03-28T19:01:01.442Z,48.00
2019-03-28T19:03:33.036Z,48.10
2019-03-28T19:06:04.547Z,48.29
2019-03-28T19:08:36.063Z,48.32
2019-03-28T19:11:07.650Z,48.44
2019-03-28T19:13:39.782Z,48.48
2019-03-28T19:16:11.559Z,48.47
2019-03-28T19:18:43.148Z,48.74
2019-03-28T19:21:14.716Z,48.73
2019-03-28T19:23:46.321Z,49.01
2019-03-28T19:26:17.905Z,49.17
2019-03-28T19:28:49.506Z,49.17
2019-03-28T19:31:21.026Z,49.08
2019-03-28T19:33:52.543Z,48.99
2019-03-28T19:36:24.049Z,48.98
2019-03-28T19:38:55.704Z,49.01
2019-03-28T19:41:27.238Z,48.90
2019-03-28T19:43:58.929Z,49.11
2019-03-28T19:46:35.869Z,49.86
2019-03-28T19:49:03.802Z,49.82
2019-03-28T19:51:35.367Z,49.85
2019-03-28T19:54:21.709Z,50.59
2019-03-28T19:57:06.320Z,50.46
2019-03-28T19:59:41.878Z,50.65
2019-03-28T20:02:14.412Z,51.00
2019-03-28T20:04:46.783Z,51.23
2019-03-28T20:07:21.937Z,51.14
2019-03-28T20:09:51.930Z,51.39
2019-03-28T20:12:23.529Z,51.30
2019-03-28T20:14:55.230Z,51.66
2019-03-28T20:17:34.362Z,52.21
2019-03-28T20:20:08.659Z,52.15
2019-03-28T20:22:46.157Z,52.49
2019-03-28T20:25:22.575Z,52.58
2019-03-28T20:27:54.043Z,52.88
2019-03-28T20:30:25.807Z,52.82
2019-03-28T20:32:57.478Z,52.74
2019-03-28T20:35:29.088Z,52.85
2019-03-28T20:38:00.679Z,53.24
2019-03-28T20:40:32.300Z,53.47
2019-03-28T20:43:07.765Z,53.62
2019-03-28T20:45:38.289Z,53.67
2019-03-28T20:48:09.845Z,53.94
2019-03-28T20:50:41.464Z,54.25
2019-03-28T20:53:13.184Z,54.23
2019-03-28T20:55:44.808Z,54.36
2019-03-28T20:58:16.541Z,54.34
2019-03-28T21:00:48.813Z,55.13
2019-03-28T21:03:23.871Z,55.14
2019-03-28T21:05:55.469Z,55.43
2019-03-28T21:08:27.287Z,55.61
2019-03-28T21:10:59.742Z,56.01
2019-03-28T21:13:31.509Z,56.30
2019-03-28T21:16:03.106Z,56.42
2019-03-28T21:18:34.705Z,56.53
2019-03-28T21:21:06.234Z,56.86
2019-03-28T21:23:38.257Z,56.34
2019-03-28T21:26:10.483Z,56.10
2019-03-28T21:28:47.567Z,56.06
2019-03-28T21:31:16.210Z,56.13
2019-03-28T21:33:47.791Z,56.19
2019-03-28T21:36:29.738Z,55.85
2019-03-28T21:38:52.575Z,55.86
2019-03-28T21:41:24.212Z,56.42
2019-03-28T21:43:56.266Z,57.23
2019-03-28T21:46:28.425Z,57.63
2019-03-28T21:49:00.038Z,58.34
2019-03-28T21:51:31.743Z,59.15
2019-03-28T21:54:04.979Z,59.59
2019-03-28T21:56:36.895Z,59.63
2019-03-28T21:59:08.554Z,59.72
2019-03-28T22:01:40.094Z,59.58
2019-03-28T22:04:11.595Z,59.87
2019-03-28T22:06:43.507Z,60.38
2019-03-28T22:09:15.199Z,59.85
2019-03-28T22:11:46.772Z,59.37
2019-03-28T22:14:18.355Z,59.49
2019-03-28T22:16:50.161Z,59.44
2019-03-28T22:19:21.850Z,59.27
2019-03-28T22:21:54.368Z,58.63
2019-03-28T22:24:25.969Z,58.43
2019-03-28T22:26:57.483Z,58.42
2019-03-28T22:29:29.222Z,58.45
2019-03-28T22:32:00.788Z,58.74
2019-03-28T22:34:33.212Z,58.77
2019-03-28T22:37:05.583Z,59.01
2019-03-28T22:39:37.376Z,59.72
2019-03-28T22:42:16.156Z,59.94
2019-03-28T22:44:47.753Z,60.06
2019-03-28T22:47:19.277Z,60.58
2019-03-28T22:49:52.052Z,60.51
2019-03-28T22:52:23.585Z,61.04
2019-03-28T22:54:55.084Z,61.65
2019-03-28T22:57:26.676Z,62.20
2019-03-28T22:59:58.206Z,62.58
2019-03-28T23:02:29.781Z,62.58
2019-03-28T23:05:01.325Z,62.52
2019-03-28T23:07:32.915Z,62.64
2019-03-28T23:10:07.528Z,62.65
2019-03-28T23:12:39.000Z,62.93
2019-03-28T23:15:10.991Z,63.23
2019-03-28T23:17:42.817Z,63.39
2019-03-28T23:20:14.386Z,63.81
2019-03-28T23:22:45.913Z,64.21
2019-03-28T23:25:17.519Z,64.21
2019-03-28T23:27:49.048Z,64.18
2019-03-28T23:30:20.633Z,64.54
2019-03-28T23:32:52.208Z,64.49
2019-03-28T23:35:23.788Z,64.69
2019-03-28T23:37:55.423Z,64.87
2019-03-28T23:40:27.024Z,65.12
2019-03-28T23:42:58.619Z,65.55
2019-03-28T23:45:30.145Z,65.53
2019-03-28T23:48:01.669Z,65.60
2019-03-28T23:50:33.324Z,65.64
2019-03-28T23:53:04.861Z,65.79
2019-03-28T23:55:36.452Z,65.99
2019-03-28T23:58:07.940Z,66.33
